Syringa, Idaho
Current Conditions -  °F | °C
As of 6:15 AM on Tuesday 27 Jan 2015 (Local Time) from KGIC Reporting Station
Clear Clear  
Wind Chill: 33°   Ceiling: Unl
Heat Index: 33°   Visibility: 10mi
Dew Point: 28°   Wind: 3mph
Humidity: 84%   Direction: 120°ESE
Pressure: 30.04"   Gusts: NA
Location:  46.2989°N, 115.619°W
Report Text: KGIC 271415Z AUTO 12003KT 10SM CLR 00/M02 A3004 RMK AO1 T00031021
Loading
Personal Weather Stations






























Interactive Weather Map New forecast layout! Learn more

10-Day Weather Forecast

Advertisements
Track Severe Weather on mobile